ラパス の空港の天気 - METARとTAF

エル・アルト国際空港 ( SLLP / LPB ) - ボリビア ラパス
飛行場実況気象(Metar)
観測時間10/16 04:00 BOT (10/16 08:00 UTC)
風向・風速東 3m/s
視程4000m
天気現象周辺で霧
少しの雲 雲底高度 60m
全天の4割程度の雲 雲底高度 240m
全天の8割程度の雲 雲底高度 6100m
気温5℃
湿度93%
気圧1037hPa
METARSLLP 160800Z 09006KT 4000E VCFG FEW002 SCT008 BKN200 05/04 Q1037
過去の天気等 Google飛行場航空写真 Wunderground天気予報

過去48時間のMETAR

飛行場予報(TAF)
発表時間: 10/16 00:55 BOT (10/16 04:55 UTC)
予報対象時間: 16日2時 BOT ~ 17日2時 BOT
風向・風速北東 2m/s
16日8時 BOT ~ 16日10時 BOT に徐々に
風向・風速南南東 5m/s
視程10km以上
天気現象運行に影響にある天気現象が終了
全天の4割程度の雲 雲底高度 460m
16日14時 BOT ~ 16日17時 BOT に一時的に
風向・風速南南東 6m/s
視程8000m
天気現象雷雨
少しの積乱雲 雲底高度 610m
TAF SLLP 160455Z 1606/1706 05003KT 3000E VCFG FEW002 SCT070 TX15/1620Z TN01/1610Z
BECMG 1612/1614 16010KT 9999 NSW SCT015
TEMPO 1618/1621 15012KT 8000 TSRA FEW020CB